createdAt,value
2022-10-21T00:00:52.753Z,15.80
2022-10-21T00:03:21.992Z,12.23
2022-10-21T00:05:50.438Z,10.07
2022-10-21T00:08:19.070Z,9.13
2022-10-21T00:10:51.142Z,9.77
2022-10-21T00:13:18.335Z,9.50
2022-10-21T00:15:45.156Z,8.50
2022-10-21T00:18:12.019Z,8.13
2022-10-21T00:20:41.183Z,8.77
2022-10-21T00:23:08.023Z,8.63
2022-10-21T00:25:34.902Z,8.50
2022-10-21T00:28:01.756Z,9.03
2022-10-21T00:30:28.591Z,8.97
2022-10-21T00:32:59.344Z,9.33
2022-10-21T00:35:29.091Z,9.00
2022-10-21T00:37:55.911Z,8.73
2022-10-21T00:40:22.750Z,9.30
2022-10-21T00:42:49.699Z,8.43
2022-10-21T00:45:23.281Z,7.73
2022-10-21T00:48:04.430Z,8.47
2022-10-21T00:50:42.698Z,8.73
2022-10-21T00:53:15.951Z,8.27
2022-10-21T00:56:06.724Z,8.67
2022-10-21T00:58:35.060Z,8.33
2022-10-21T01:01:06.201Z,8.93
2022-10-21T01:03:36.060Z,9.17
2022-10-21T01:06:10.652Z,7.93
2022-10-21T01:08:38.914Z,9.33
2022-10-21T01:11:15.795Z,9.17
2022-10-21T01:14:23.953Z,8.97
2022-10-21T01:17:39.889Z,9.33
2022-10-21T01:21:01.299Z,8.80
2022-10-21T01:24:27.005Z,9.30
2022-10-21T01:27:24.190Z,9.13
2022-10-21T01:30:24.885Z,8.87
2022-10-21T01:36:21.877Z,9.20
2022-10-21T01:39:22.945Z,8.50
2022-10-21T01:42:13.521Z,7.80
2022-10-21T01:45:14.713Z,9.27
2022-10-21T01:47:51.257Z,8.83
2022-10-21T01:50:27.329Z,8.67
2022-10-21T01:53:08.181Z,9.90
2022-10-21T01:55:38.009Z,9.10
2022-10-21T01:58:23.910Z,8.30
2022-10-21T02:00:56.181Z,9.10
2022-10-21T02:03:32.393Z,9.30
2022-10-21T02:05:59.870Z,9.00
2022-10-21T02:08:27.283Z,9.40
2022-10-21T02:11:02.213Z,10.10
2022-10-21T02:13:54.113Z,10.57
2022-10-21T02:16:29.754Z,11.10
2022-10-21T02:19:00.229Z,10.73
2022-10-21T02:21:34.890Z,10.40
2022-10-21T02:24:22.237Z,10.83
2022-10-21T02:26:49.342Z,10.77
2022-10-21T02:29:28.560Z,11.10
2022-10-21T02:32:30.349Z,12.47
2022-10-21T02:35:34.150Z,9.50
2022-10-21T02:38:32.960Z,10.60
2022-10-21T02:41:11.524Z,9.83
2022-10-21T02:43:51.970Z,11.17
2022-10-21T02:46:19.147Z,10.37
2022-10-21T02:48:48.558Z,10.83
2022-10-21T02:51:16.374Z,10.70
2022-10-21T02:53:43.650Z,10.87
2022-10-21T02:56:10.519Z,10.50
2022-10-21T02:58:37.722Z,11.37
2022-10-21T03:01:04.635Z,11.17
2022-10-21T03:03:31.531Z,10.63
2022-10-21T03:05:58.380Z,11.23
2022-10-21T03:08:25.342Z,10.80
2022-10-21T03:10:53.519Z,11.20
2022-10-21T03:13:22.772Z,10.10
2022-10-21T03:15:51.154Z,11.73
2022-10-21T03:18:19.114Z,11.57
2022-10-21T03:20:51.366Z,11.03
2022-10-21T03:23:20.286Z,9.93
2022-10-21T03:25:47.786Z,11.43
2022-10-21T03:28:15.249Z,11.20
2022-10-21T03:30:42.203Z,11.33
2022-10-21T03:33:09.111Z,10.97
2022-10-21T03:35:36.086Z,11.17
2022-10-21T03:38:02.932Z,11.30
2022-10-21T03:40:30.420Z,11.30
2022-10-21T03:42:58.866Z,12.97
2022-10-21T03:45:26.723Z,11.60
2022-10-21T03:47:53.680Z,11.47
2022-10-21T03:50:23.598Z,11.63
2022-10-21T03:52:52.339Z,11.17
2022-10-21T03:55:20.766Z,11.03
2022-10-21T03:57:48.692Z,12.70
2022-10-21T04:00:16.251Z,10.23
2022-10-21T04:02:43.774Z,10.80
2022-10-21T04:05:11.838Z,11.03
2022-10-21T04:07:39.488Z,11.90
2022-10-21T04:10:08.003Z,12.07
2022-10-21T04:12:35.563Z,11.87
2022-10-21T04:15:03.160Z,12.27
2022-10-21T04:17:30.064Z,12.00
2022-10-21T04:19:56.975Z,12.00
2022-10-21T04:22:23.904Z,11.73
2022-10-21T04:24:50.750Z,12.60
2022-10-21T04:27:17.587Z,12.40
2022-10-21T04:29:44.461Z,11.13
2022-10-21T04:32:11.328Z,11.47
2022-10-21T04:34:38.160Z,12.07
2022-10-21T04:37:05.410Z,12.43
2022-10-21T04:39:32.917Z,11.77
2022-10-21T04:41:59.854Z,13.03
2022-10-21T04:44:26.783Z,12.63
2022-10-21T04:46:53.864Z,11.60
2022-10-21T04:49:20.801Z,11.80
2022-10-21T04:51:47.957Z,11.50
2022-10-21T04:54:14.969Z,12.40
2022-10-21T04:56:42.564Z,13.30
2022-10-21T04:59:09.801Z,12.63
2022-10-21T05:01:36.688Z,13.07
2022-10-21T05:04:03.665Z,10.73
2022-10-21T05:06:30.718Z,12.90
2022-10-21T05:08:57.665Z,13.13
2022-10-21T05:11:25.053Z,13.60
2022-10-21T05:13:52.279Z,12.97
2022-10-21T05:16:19.142Z,12.03
2022-10-21T05:18:46.059Z,12.20
2022-10-21T05:21:12.993Z,12.83
2022-10-21T05:23:39.875Z,13.07
2022-10-21T05:26:06.938Z,13.33
2022-10-21T05:28:33.950Z,11.87
2022-10-21T05:31:00.853Z,12.97
2022-10-21T05:33:28.407Z,12.73
2022-10-21T05:36:04.932Z,12.70
2022-10-21T05:38:32.085Z,12.60
2022-10-21T05:40:59.293Z,12.90
2022-10-21T05:43:27.958Z,13.20
2022-10-21T05:45:55.027Z,12.70
2022-10-21T05:48:22.059Z,13.70
2022-10-21T05:50:54.581Z,14.10
2022-10-21T05:53:23.997Z,12.80
2022-10-21T05:56:07.742Z,12.43
2022-10-21T05:58:35.994Z,12.47
2022-10-21T06:01:04.142Z,12.37
2022-10-21T06:03:34.780Z,13.53
2022-10-21T06:06:06.044Z,13.00
2022-10-21T06:08:36.599Z,13.67
2022-10-21T06:11:18.478Z,13.40
2022-10-21T06:13:46.343Z,13.50
2022-10-21T06:16:14.898Z,11.90
2022-10-21T06:18:42.602Z,12.83
2022-10-21T06:21:10.800Z,13.00
2022-10-21T06:23:38.436Z,12.70
2022-10-21T06:26:15.045Z,13.47
2022-10-21T06:28:44.728Z,14.33
2022-10-21T06:31:19.042Z,12.37
2022-10-21T06:33:46.069Z,13.60
2022-10-21T06:36:13.262Z,14.53
2022-10-21T06:38:40.775Z,15.20
2022-10-21T06:41:13.642Z,13.87
2022-10-21T06:43:42.838Z,13.13
2022-10-21T06:46:15.180Z,14.40
2022-10-21T06:48:42.591Z,14.13
2022-10-21T06:51:21.464Z,14.47
2022-10-21T06:53:54.583Z,14.10
2022-10-21T06:56:22.967Z,13.73
2022-10-21T06:58:51.451Z,12.73
2022-10-21T07:01:35.238Z,13.37
2022-10-21T07:04:10.640Z,14.43
2022-10-21T07:06:38.065Z,14.57
2022-10-21T07:09:08.363Z,13.03
2022-10-21T07:11:36.087Z,13.57
2022-10-21T07:14:03.412Z,14.67
2022-10-21T07:16:35.532Z,14.80
2022-10-21T07:19:03.376Z,14.67
2022-10-21T07:21:32.180Z,13.20
2022-10-21T07:24:00.824Z,12.87
2022-10-21T07:26:32.138Z,13.17
2022-10-21T07:29:01.303Z,13.80
2022-10-21T07:31:33.124Z,13.50
2022-10-21T07:34:02.615Z,13.50
2022-10-21T07:36:35.750Z,14.03
2022-10-21T07:39:12.120Z,11.73
2022-10-21T07:41:45.317Z,15.33
2022-10-21T07:44:13.328Z,13.70
2022-10-21T07:46:43.348Z,13.17
2022-10-21T07:49:12.713Z,15.20
2022-10-21T07:51:41.023Z,14.70
2022-10-21T07:54:08.873Z,12.63
2022-10-21T07:56:44.809Z,13.10
2022-10-21T07:59:14.090Z,14.07
2022-10-21T08:04:02.616Z,13.63
2022-10-21T08:06:29.974Z,12.90
2022-10-21T08:08:57.637Z,12.53
2022-10-21T08:11:32.108Z,12.50
2022-10-21T08:13:59.877Z,12.83
2022-10-21T08:16:27.563Z,12.67
2022-10-21T08:18:55.729Z,13.63
2022-10-21T08:21:22.579Z,12.50
2022-10-21T08:23:49.466Z,13.10
2022-10-21T08:26:16.977Z,14.43
2022-10-21T08:28:44.376Z,14.20
2022-10-21T08:31:21.925Z,14.67
2022-10-21T08:33:50.216Z,12.77
2022-10-21T08:36:24.998Z,14.57
2022-10-21T08:38:54.015Z,14.03
2022-10-21T08:41:30.050Z,13.37
2022-10-21T08:44:39.877Z,12.77
2022-10-21T08:47:48.594Z,13.73
2022-10-21T08:50:24.718Z,11.50
2022-10-21T08:53:06.135Z,13.20
2022-10-21T08:55:43.894Z,13.80
2022-10-21T08:58:23.345Z,13.77
2022-10-21T09:01:24.554Z,13.70
2022-10-21T09:04:02.543Z,12.80
2022-10-21T09:07:12.702Z,13.53
2022-10-21T09:09:56.573Z,11.50
2022-10-21T09:12:59.666Z,12.73
2022-10-21T09:15:52.651Z,12.87
2022-10-21T09:19:01.063Z,12.37
2022-10-21T09:22:10.812Z,13.50
2022-10-21T09:25:33.694Z,13.27
2022-10-21T09:28:12.855Z,12.70
2022-10-21T09:30:43.558Z,14.30
2022-10-21T09:33:34.627Z,13.67
2022-10-21T09:36:47.422Z,16.50
2022-10-21T09:39:43.826Z,14.30
2022-10-21T09:42:29.611Z,16.90
2022-10-21T09:45:01.283Z,13.37
2022-10-21T09:47:28.219Z,15.00
2022-10-21T09:50:07.368Z,14.90
2022-10-21T09:52:38.292Z,14.60
2022-10-21T09:55:06.472Z,16.13
2022-10-21T09:58:03.787Z,16.10
2022-10-21T10:00:59.895Z,18.30
2022-10-21T10:03:45.847Z,15.33
2022-10-21T10:06:13.567Z,14.90
2022-10-21T10:08:47.351Z,14.77
2022-10-21T10:11:21.810Z,14.37
2022-10-21T10:13:53.740Z,13.73
2022-10-21T10:16:33.039Z,13.10
2022-10-21T10:19:25.653Z,13.40
2022-10-21T10:22:12.043Z,12.20
2022-10-21T10:24:42.438Z,12.70
2022-10-21T10:27:23.240Z,13.47
2022-10-21T10:29:58.496Z,16.87
2022-10-21T10:32:33.901Z,12.40
2022-10-21T10:35:08.599Z,17.57
2022-10-21T10:37:38.012Z,14.00
2022-10-21T10:40:09.647Z,13.40
2022-10-21T10:42:46.352Z,13.70
2022-10-21T10:45:20.505Z,12.50
2022-10-21T10:47:59.223Z,11.93
2022-10-21T10:50:38.337Z,12.37
2022-10-21T10:53:38.079Z,13.67
2022-10-21T10:56:26.773Z,17.87
2022-10-21T10:59:22.714Z,26.30
2022-10-21T11:02:07.746Z,15.80
2022-10-21T11:05:13.496Z,17.67
2022-10-21T11:07:52.548Z,22.47
2022-10-21T11:10:49.125Z,17.53
2022-10-21T11:13:24.062Z,14.00
2022-10-21T11:16:59.395Z,16.07
2022-10-21T11:19:56.868Z,19.63
2022-10-21T11:22:49.501Z,19.97
2022-10-21T11:25:27.905Z,16.43
2022-10-21T11:28:52.065Z,16.03
2022-10-21T11:32:10.328Z,14.07
2022-10-21T11:35:22.597Z,12.07
2022-10-21T11:38:38.530Z,9.13
2022-10-21T11:41:32.033Z,10.43
2022-10-21T11:44:29.564Z,10.20
2022-10-21T11:47:37.740Z,9.63
2022-10-21T11:50:27.827Z,10.10
2022-10-21T11:53:14.340Z,9.97
2022-10-21T11:56:55.977Z,10.87
2022-10-21T12:00:00.125Z,10.27
2022-10-21T12:03:11.186Z,11.17
2022-10-21T12:05:57.154Z,13.43
2022-10-21T12:08:44.384Z,12.27
2022-10-21T12:11:24.378Z,10.97
2022-10-21T12:14:28.927Z,11.13
2022-10-21T12:17:08.335Z,8.90
2022-10-21T12:19:36.872Z,9.60
2022-10-21T12:22:04.850Z,9.90
2022-10-21T12:24:34.443Z,10.40
2022-10-21T12:27:35.505Z,9.20
2022-10-21T12:30:16.835Z,9.63
2022-10-21T12:33:39.770Z,10.20
2022-10-21T12:36:24.647Z,9.07
2022-10-21T12:39:01.751Z,8.93
2022-10-21T12:41:36.394Z,9.87
2022-10-21T12:44:03.371Z,9.63
2022-10-21T12:46:41.013Z,8.70
2022-10-21T12:49:22.555Z,8.23
2022-10-21T12:52:22.488Z,9.80
2022-10-21T12:55:22.274Z,8.90
2022-10-21T12:58:05.468Z,7.17
2022-10-21T13:00:36.081Z,7.67
2022-10-21T13:03:42.929Z,9.83
2022-10-21T13:06:09.931Z,8.40
2022-10-21T13:08:55.305Z,9.27
2022-10-21T13:11:34.359Z,9.90
2022-10-21T13:14:16.415Z,6.50
2022-10-21T13:16:43.656Z,6.40
2022-10-21T13:19:16.622Z,7.07
2022-10-21T13:21:49.319Z,5.93
2022-10-21T13:24:26.544Z,6.77
2022-10-21T13:26:59.833Z,6.50
2022-10-21T13:29:43.923Z,6.30
2022-10-21T13:32:21.675Z,5.67
2022-10-21T13:35:14.231Z,6.50
2022-10-21T13:38:20.588Z,6.37
2022-10-21T13:40:57.604Z,6.50
2022-10-21T13:43:44.596Z,6.43
2022-10-21T13:46:28.502Z,6.90
2022-10-21T13:48:59.473Z,7.00
2022-10-21T13:51:44.860Z,6.50
2022-10-21T13:54:16.044Z,7.37
2022-10-21T13:56:43.718Z,7.50
2022-10-21T13:59:34.755Z,7.60
2022-10-21T14:02:02.052Z,6.87
2022-10-21T14:04:33.112Z,7.20
2022-10-21T14:07:09.008Z,7.27
2022-10-21T14:09:45.690Z,7.13
2022-10-21T14:12:36.392Z,6.80
2022-10-21T14:15:19.359Z,7.10
2022-10-21T14:17:59.716Z,5.10
2022-10-21T14:20:37.966Z,5.40
2022-10-21T14:23:18.841Z,5.63
2022-10-21T14:25:50.301Z,6.10
2022-10-21T14:28:18.844Z,6.27
2022-10-21T14:30:46.440Z,5.00
2022-10-21T14:33:25.477Z,6.00
2022-10-21T14:36:23.188Z,5.63
2022-10-21T14:39:05.470Z,6.00
2022-10-21T14:41:44.445Z,6.33
2022-10-21T14:44:26.459Z,5.37
2022-10-21T14:46:54.827Z,5.80
2022-10-21T14:49:30.588Z,6.43
2022-10-21T14:52:07.890Z,6.60
2022-10-21T14:54:54.569Z,8.23
2022-10-21T14:57:53.397Z,6.13
2022-10-21T15:00:30.189Z,6.30
2022-10-21T15:03:00.494Z,6.10
2022-10-21T15:05:42.958Z,5.90
2022-10-21T15:08:21.355Z,6.63
2022-10-21T15:11:02.073Z,6.03
2022-10-21T15:13:28.997Z,6.13
2022-10-21T15:16:00.699Z,5.70
2022-10-21T15:18:48.942Z,6.40
2022-10-21T15:21:40.342Z,6.50
2022-10-21T15:24:20.206Z,6.30
2022-10-21T15:26:52.246Z,6.00
2022-10-21T15:29:35.435Z,5.93
2022-10-21T15:32:03.750Z,6.30
2022-10-21T15:34:31.352Z,5.80
2022-10-21T15:36:58.442Z,6.17
2022-10-21T15:39:25.402Z,6.40
2022-10-21T15:41:54.945Z,6.07
2022-10-21T15:44:31.936Z,7.40
2022-10-21T15:47:02.586Z,6.33
2022-10-21T15:49:43.083Z,6.60
2022-10-21T15:52:10.286Z,6.03
2022-10-21T15:54:37.550Z,5.53
2022-10-21T15:57:22.677Z,7.33
2022-10-21T15:59:49.611Z,6.57
2022-10-21T16:02:18.011Z,6.73
2022-10-21T16:04:45.633Z,7.30
2022-10-21T16:07:34.187Z,6.77
2022-10-21T16:10:03.543Z,6.30
2022-10-21T16:12:30.979Z,5.63
2022-10-21T16:14:57.846Z,6.30
2022-10-21T16:17:28.468Z,7.07
2022-10-21T16:19:55.359Z,6.87
2022-10-21T16:22:24.144Z,7.30
2022-10-21T16:24:51.047Z,7.13
2022-10-21T16:27:31.312Z,6.63
2022-10-21T16:30:26.867Z,7.50
2022-10-21T16:32:54.321Z,6.90
2022-10-21T16:35:21.833Z,7.00
2022-10-21T16:37:49.899Z,6.43
2022-10-21T16:40:32.220Z,6.63
2022-10-21T16:42:59.170Z,6.67
2022-10-21T16:45:32.401Z,6.03
2022-10-21T16:48:04.720Z,6.70
2022-10-21T16:50:45.815Z,6.57
2022-10-21T16:53:17.576Z,6.43
2022-10-21T16:55:44.477Z,6.90
2022-10-21T16:58:11.432Z,6.67
2022-10-21T17:00:38.678Z,6.00
2022-10-21T17:03:05.692Z,9.00
2022-10-21T17:08:04.681Z,6.30
2022-10-21T17:10:31.600Z,5.97
2022-10-21T17:12:59.165Z,6.10
2022-10-21T17:15:27.148Z,7.50
2022-10-21T17:17:54.689Z,7.83
2022-10-21T17:20:21.641Z,6.67
2022-10-21T17:22:48.548Z,7.10
2022-10-21T17:25:15.485Z,7.23
2022-10-21T17:27:42.545Z,6.97
2022-10-21T17:30:12.088Z,8.50
2022-10-21T17:32:39.032Z,8.70
2022-10-21T17:35:06.872Z,8.60
2022-10-21T17:37:33.724Z,9.37
2022-10-21T17:40:00.567Z,10.73
2022-10-21T17:42:27.437Z,9.50
2022-10-21T17:44:54.376Z,9.30
2022-10-21T17:47:21.265Z,9.20
2022-10-21T17:49:48.116Z,9.50
2022-10-21T17:52:15.021Z,10.77
2022-10-21T17:54:41.973Z,10.03
2022-10-21T17:57:09.425Z,9.23
2022-10-21T17:59:36.387Z,9.57
2022-10-21T18:02:03.238Z,10.57
2022-10-21T18:04:31.576Z,10.50
2022-10-21T18:06:58.416Z,10.90
2022-10-21T18:09:25.379Z,10.87
2022-10-21T18:11:52.290Z,10.90
2022-10-21T18:14:19.189Z,10.47
2022-10-21T18:16:46.173Z,9.27
2022-10-21T18:19:13.808Z,9.57
2022-10-21T18:21:40.661Z,11.00
2022-10-21T18:24:12.179Z,8.83
2022-10-21T18:26:39.905Z,9.57
2022-10-21T18:29:06.752Z,11.27
2022-10-21T18:31:37.876Z,10.57
2022-10-21T18:34:08.978Z,9.20
2022-10-21T18:36:36.694Z,8.37
2022-10-21T18:39:04.782Z,9.20
2022-10-21T18:41:31.752Z,8.33
2022-10-21T18:44:04.632Z,9.67
2022-10-21T18:46:32.060Z,8.50
2022-10-21T18:48:59.460Z,8.70
2022-10-21T18:51:26.638Z,8.50
2022-10-21T18:53:53.658Z,8.60
2022-10-21T18:56:24.296Z,7.77
2022-10-21T18:58:52.898Z,7.77
2022-10-21T19:01:22.779Z,8.10
2022-10-21T19:03:54.039Z,8.40
2022-10-21T19:06:48.623Z,9.40
2022-10-21T19:09:19.809Z,9.37
2022-10-21T19:11:48.310Z,8.67
2022-10-21T19:14:19.063Z,9.07
2022-10-21T19:16:48.490Z,8.33
2022-10-21T19:19:16.748Z,7.80
2022-10-21T19:21:43.659Z,8.50
2022-10-21T19:24:10.794Z,7.23
2022-10-21T19:26:41.960Z,8.07
2022-10-21T19:29:18.535Z,7.20
2022-10-21T19:34:23.503Z,7.57
2022-10-21T19:36:51.238Z,7.73
2022-10-21T19:39:18.555Z,9.23
2022-10-21T19:41:46.111Z,9.53
2022-10-21T19:44:13.490Z,7.47
2022-10-21T19:46:40.563Z,10.67
2022-10-21T19:49:09.612Z,8.27
2022-10-21T19:51:37.446Z,8.80
2022-10-21T19:54:08.764Z,6.77
2022-10-21T19:56:36.006Z,9.20
2022-10-21T19:59:05.403Z,7.77
2022-10-21T20:01:34.316Z,6.23
2022-10-21T20:04:03.602Z,7.00
2022-10-21T20:06:35.660Z,8.53
2022-10-21T20:09:09.173Z,7.90
2022-10-21T20:11:38.024Z,6.80
2022-10-21T20:14:05.902Z,6.90
2022-10-21T20:16:43.740Z,6.80
2022-10-21T20:19:12.455Z,7.67
2022-10-21T20:21:39.458Z,7.50
2022-10-21T20:24:06.712Z,6.37
2022-10-21T20:26:34.670Z,7.67
2022-10-21T20:29:01.941Z,7.23
2022-10-21T20:31:29.937Z,7.67
2022-10-21T20:33:57.064Z,5.93
2022-10-21T20:36:34.639Z,6.27
2022-10-21T20:39:03.124Z,5.53
2022-10-21T20:41:37.159Z,8.70
2022-10-21T20:44:11.856Z,7.73
2022-10-21T20:46:38.830Z,7.30
2022-10-21T20:49:08.072Z,6.40
2022-10-21T20:51:39.499Z,6.50
2022-10-21T20:54:18.775Z,7.80
2022-10-21T20:56:46.000Z,6.80
2022-10-21T20:59:16.157Z,6.10
2022-10-21T21:01:47.058Z,4.90
2022-10-21T21:04:20.522Z,5.00
2022-10-21T21:06:50.449Z,5.43
2022-10-21T21:12:07.890Z,5.47
2022-10-21T21:14:34.824Z,5.63
2022-10-21T21:17:01.863Z,5.30
2022-10-21T21:19:28.717Z,5.00
2022-10-21T21:21:55.634Z,4.77
2022-10-21T21:24:22.580Z,4.57
2022-10-21T21:26:49.629Z,4.90
2022-10-21T21:29:16.541Z,4.40
2022-10-21T21:31:44.046Z,5.17
2022-10-21T21:34:11.686Z,5.20
2022-10-21T21:36:38.711Z,4.80
2022-10-21T21:39:08.168Z,7.30
2022-10-21T21:41:35.858Z,5.27
2022-10-21T21:44:05.017Z,4.60
2022-10-21T21:46:31.972Z,4.40
2022-10-21T21:49:05.419Z,4.60
2022-10-21T21:51:36.311Z,4.80
2022-10-21T21:54:07.504Z,5.00
2022-10-21T21:56:34.685Z,5.50
2022-10-21T21:59:01.626Z,5.10
2022-10-21T22:01:29.999Z,5.13
2022-10-21T22:03:58.542Z,5.73
2022-10-21T22:06:31.887Z,5.50
2022-10-21T22:09:00.242Z,5.73
2022-10-21T22:11:32.254Z,4.00
2022-10-21T22:14:00.069Z,5.67
2022-10-21T22:16:29.813Z,4.60
2022-10-21T22:19:00.046Z,4.13
2022-10-21T22:21:30.419Z,4.60
2022-10-21T22:23:57.874Z,3.93
2022-10-21T22:26:26.574Z,4.47
2022-10-21T22:28:53.964Z,5.73
2022-10-21T22:31:27.209Z,4.90
2022-10-21T22:33:57.648Z,4.87
2022-10-21T22:36:24.503Z,4.87
2022-10-21T22:38:51.359Z,5.30
2022-10-21T22:41:18.471Z,5.23
2022-10-21T22:43:45.320Z,4.80
2022-10-21T22:46:29.169Z,4.80
2022-10-21T22:48:59.079Z,4.00
2022-10-21T22:51:26.053Z,4.40
2022-10-21T22:53:55.532Z,4.40
2022-10-21T22:56:25.578Z,4.70
2022-10-21T22:58:52.590Z,4.20
2022-10-21T23:01:20.119Z,4.60
2022-10-21T23:03:46.972Z,4.97
2022-10-21T23:06:14.358Z,5.57
2022-10-21T23:08:41.600Z,5.00
2022-10-21T23:11:08.497Z,5.73
2022-10-21T23:13:35.364Z,5.23
2022-10-21T23:16:02.212Z,4.83
2022-10-21T23:18:29.088Z,4.50
2022-10-21T23:20:55.947Z,6.10
2022-10-21T23:23:23.252Z,4.30
2022-10-21T23:25:50.310Z,4.70
2022-10-21T23:30:45.180Z,4.60
2022-10-21T23:33:12.044Z,4.07
2022-10-21T23:35:38.976Z,6.57
2022-10-21T23:38:06.312Z,6.07
2022-10-21T23:40:33.425Z,4.20
2022-10-21T23:43:00.262Z,4.60
2022-10-21T23:45:28.601Z,5.13
2022-10-21T23:47:55.552Z,5.20
2022-10-21T23:50:22.756Z,5.43
2022-10-21T23:52:49.757Z,4.60
2022-10-21T23:55:16.775Z,4.33
2022-10-21T23:57:43.792Z,7.33
